Saturday, December 16, 2017, 2:03 AM EST
Back to Local

KAFN, Jaffrey Muni-silver Ranch

Location: Jaffrey, NH, United States Lat: 42.8
Local Time: 2:03 AM EST ( 7:03 GMT) Lon: -72
Time Zone: US/Eastern Elev: 1040 ft

Show me the last for .
Show Decoded

2017-12-16 01:52 METAR KAFN 160652Z AUTO 24003KT 10SM FEW090 OVC110 M09/M11 A2975 RMK AO2 SLP095
                 T10891106 =
2017-12-16 00:52 METAR KAFN 160552Z AUTO 21003KT 10SM FEW095 OVC120 M10/M11 A2974 RMK AO2 SLP094
                 60000 T11001106 11067 21106 57015 =
2017-12-15 23:52 METAR KAFN 160452Z AUTO 00000KT 10SM BKN095 BKN110 M08/M09 A2975 RMK AO2 SLP097
                 T10831094 410561161 =
2017-12-15 22:52 METAR KAFN 160352Z AUTO 24003KT 10SM OVC090 M08/M09 A2977 RMK AO2 SLP105
                 T10781094 =
2017-12-15 21:52 METAR KAFN 160252Z AUTO 21005KT 10SM OVC110 M07/M09 A2978 RMK AO2 SLP109 60000
                 T10721094 55006 =
2017-12-15 20:52 METAR KAFN 160152Z AUTO 18007KT 10SM BKN050 OVC070 M07/M10 A2978 RMK AO2
                 SNB31E40 SLP110 P0000 T10721100 =
2017-12-15 19:52 METAR KAFN 160052Z AUTO 21003KT 10SM OVC060 M07/M09 A2980 RMK AO2 SLP116
                 T10721094 =
2017-12-15 18:52 METAR KAFN 152352Z AUTO 00000KT 10SM OVC090 M07/M09 A2980 RMK AO2 SLP118
                 T10721094 11056 21072 56022 =
2017-12-15 17:52 METAR KAFN 152252Z AUTO 00000KT 10SM OVC080 M07/M10 A2981 RMK AO2 SLP119
                 T10671100 =
2017-12-15 16:52 METAR KAFN 152152Z AUTO 00000KT 10SM OVC065 M06/M11 A2984 RMK AO2 SLP130
                 T10611106 =
2017-12-15 15:52 METAR KAFN 152052Z AUTO 21003KT 10SM OVC085 M06/M11 A2987 RMK AO2 SLP140
                 T10611106 58018 =
2017-12-15 14:52 METAR KAFN 151952Z AUTO 23005KT 10SM OVC095 M06/M11 A2989 RMK AO2 SLP149
                 T10561106 =
2017-12-15 13:52 METAR KAFN 151852Z AUTO 22004KT 10SM OVC120 M06/M11 A2990 RMK AO2 SLP151
                 T10561111 =
2017-12-15 12:52 METAR KAFN 151752Z AUTO 19005KT 10SM CLR M06/M11 A2992 RMK AO2 SLP158 T10611111
                 11056 21161 58028 =
2017-12-15 11:52 METAR KAFN 151652Z AUTO 19004KT 10SM CLR M07/M11 A2995 RMK AO2 SLP166 T10671111
                 =
2017-12-15 10:52 METAR KAFN 151552Z AUTO 20003KT 10SM CLR M08/M12 A2999 RMK AO2 SLP181 T10781117
                 =
2017-12-15 09:52 METAR KAFN 151452Z AUTO 00000KT 10SM CLR M08/M13 A3001 RMK AO2 SLP188 T10831128
                 51008 =
2017-12-15 08:52 METAR KAFN 151352Z AUTO 00000KT 10SM CLR M12/M14 A3001 RMK AO2 SLP188 T11171139
                 =
2017-12-15 07:52 METAR KAFN 151252Z AUTO 20006KT 10SM CLR M16/M17 A2999 RMK AO2 SLP184 T11561167
                 =
2017-12-15 06:52 METAR KAFN 151152Z AUTO 16006KT 10SM CLR M14/M16 A2998 RMK AO2 SLP181 T11441156
                 11111 21161 53009 =
2017-12-15 05:52 METAR KAFN 151052Z AUTO 19006KT 10SM CLR M13/M16 A2997 RMK AO2 SLP176 T11281156
                 =
2017-12-15 04:52 METAR KAFN 150952Z AUTO 16006KT 10SM CLR M13/M16 A2997 RMK AO2 SLP173 T11281161
                 =
2017-12-15 03:52 METAR KAFN 150852Z AUTO 16003KT 10SM CLR M14/M17 A2996 RMK AO2 SLP170 T11441172
                 51014 =
2017-12-15 02:52 METAR KAFN 150752Z AUTO 17007KT 10SM CLR M15/M17 A2995 RMK AO2 SLP167 T11501167
                 =

Support USWX by starting your Amazon purchase here.